Time;durP1;ratioP1;P1;durP2;ratioP2;P2;SDS_P1;SDS_P2;PMS_P1;PMS_P2;Temp;Humidity;BMP_temperature;BMP_pressure;BME280_temperature;BME280_humidity;BME280_pressure;Samples;Min_cycle;Max_cycle;Signal;HPM_P1;HPM_P2
2021/11/01 00:00:48;;;;;;;23.88;3.50;;;;;;;;;;5020139;28;20194;-73
2021/11/01 00:03:14;;;;;;;21.15;2.95;;;;;;;;;;5006133;28;20186;-72
2021/11/01 00:05:39;;;;;;;22.60;3.50;;;;;;;;;;5017933;28;20244;-72
2021/11/01 00:08:05;;;;;;;26.02;3.95;;;;;;;;;;5010337;28;20197;-73
2021/11/01 00:10:31;;;;;;;20.38;3.20;;;;;;;;;;5018275;28;20280;-73
2021/11/01 00:12:56;;;;;;;18.33;3.30;;;;;;;;;;5004568;28;20202;-73
2021/11/01 00:15:22;;;;;;;28.15;3.95;;;;;;;;;;5019597;28;20548;-73
2021/11/01 00:17:47;;;;;;;23.77;3.45;;;;;;;;;;5008254;28;20186;-73
2021/11/01 00:20:12;;;;;;;23.17;3.40;;;;;;;;;;5009986;28;20243;-73
2021/11/01 00:22:38;;;;;;;18.45;3.15;;;;;;;;;;5018873;28;20248;-74
2021/11/01 00:25:06;;;;;;;21.55;3.38;;;;;;;;;;5010358;28;20185;-73
2021/11/01 00:27:31;;;;;;;23.25;2.75;;;;;;;;;;5013332;28;20181;-74
2021/11/01 00:29:57;;;;;;;24.10;3.00;;;;;;;;;;5011158;28;20217;-73
2021/11/01 00:32:22;;;;;;;24.73;3.13;;;;;;;;;;5017787;28;20197;-72
2021/11/01 00:34:47;;;;;;;20.60;2.92;;;;;;;;;;5010628;28;20228;-73
2021/11/01 00:37:13;;;;;;;19.42;2.80;;;;;;;;;;5014021;28;20666;-73
2021/11/01 00:39:39;;;;;;;20.17;2.95;;;;;;;;;;5010560;28;20193;-73
2021/11/01 00:42:05;;;;;;;21.08;3.40;;;;;;;;;;5018187;28;20197;-73
2021/11/01 00:44:30;;;;;;;19.17;2.83;;;;;;;;;;5010093;28;20970;-73
2021/11/01 00:47:00;;;;;;;23.70;3.20;;;;;;;;;;5018978;28;20277;-75
2021/11/01 00:49:26;;;;;;;26.42;3.35;;;;;;;;;;5016553;28;20193;-74
2021/11/01 00:51:54;;;;;;;20.23;2.53;;;;;;;;;;5013524;28;20552;-71
2021/11/01 00:54:20;;;;;;;28.52;4.00;;;;;;;;;;5017341;28;20864;-74
2021/11/01 00:56:45;;;;;;;20.35;2.72;;;;;;;;;;5010211;28;20214;-71
2021/11/01 00:59:11;;;;;;;17.40;2.72;;;;;;;;;;5017730;28;20308;-72
2021/11/01 01:01:39;;;;;;;19.45;3.55;;;;;;;;;;5010702;28;20372;-71
2021/11/01 01:04:05;;;;;;;24.20;3.38;;;;;;;;;;5016094;28;20198;-71
2021/11/01 01:06:31;;;;;;;23.23;3.78;;;;;;;;;;5006433;28;20692;-72
2021/11/01 01:08:56;;;;;;;20.55;3.95;;;;;;;;;;5019899;28;20190;-73
2021/11/01 01:11:22;;;;;;;16.10;2.63;;;;;;;;;;5014742;28;20237;-72
2021/11/01 01:13:48;;;;;;;16.10;3.22;;;;;;;;;;5019902;28;20265;-72
2021/11/01 01:18:52;;;;;;;21.77;3.75;;;;;;;;;;5020757;28;20224;-72
2021/11/01 01:24:02;;;;;;;24.67;3.85;;;;;;;;;;5022743;28;20201;-71
2021/11/01 01:26:27;;;;;;;17.48;3.25;;;;;;;;;;5014976;28;20194;-72
2021/11/01 01:28:54;;;;;;;24.67;4.00;;;;;;;;;;5019347;28;20266;-72
2021/11/01 01:31:19;;;;;;;18.80;3.47;;;;;;;;;;5022431;28;20263;-71
2021/11/01 01:33:44;;;;;;;19.33;3.30;;;;;;;;;;5012617;28;20581;-73
2021/11/01 01:36:10;;;;;;;16.38;3.15;;;;;;;;;;5021580;28;20217;-72
2021/11/01 01:38:36;;;;;;;20.23;3.65;;;;;;;;;;5014428;28;20201;-71
2021/11/01 01:41:30;;;;;;;19.80;3.55;;;;;;;;;;5021977;28;20194;-73
2021/11/01 01:44:01;;;;;;;18.20;2.83;;;;;;;;;;5003012;28;20217;-73
2021/11/01 01:46:29;;;;;;;20.30;3.35;;;;;;;;;;5030781;28;20190;-73
2021/11/01 01:48:56;;;;;;;22.77;3.22;;;;;;;;;;5011947;28;20205;-73
2021/11/01 01:51:25;;;;;;;24.33;3.97;;;;;;;;;;5017438;28;21296;-73
2021/11/01 01:53:50;;;;;;;16.25;3.65;;;;;;;;;;5009426;28;20190;-73
2021/11/01 01:56:16;;;;;;;17.98;3.28;;;;;;;;;;5018433;28;20214;-73
2021/11/01 01:58:50;;;;;;;19.08;3.60;;;;;;;;;;5012015;28;20284;-72
2021/11/01 02:01:15;;;;;;;14.15;3.60;;;;;;;;;;5017279;28;20195;-72
2021/11/01 02:03:45;;;;;;;17.67;3.55;;;;;;;;;;5009937;28;20555;-73
2021/11/01 02:06:34;;;;;;;23.55;3.90;;;;;;;;;;5018614;28;20650;-73
2021/11/01 02:09:22;;;;;;;17.15;3.80;;;;;;;;;;5004657;28;20187;-73
2021/11/01 02:12:02;;;;;;;19.05;3.20;;;;;;;;;;5020781;28;20569;-73
2021/11/01 02:14:36;;;;;;;15.52;3.58;;;;;;;;;;5005532;28;20613;-72
2021/11/01 02:17:01;;;;;;;13.18;3.05;;;;;;;;;;5021683;28;20232;-72
2021/11/01 02:19:29;;;;;;;19.05;2.78;;;;;;;;;;5010304;28;20235;-73
2021/11/01 02:22:09;;;;;;;17.45;2.83;;;;;;;;;;5016046;28;20716;-74
2021/11/01 02:24:37;;;;;;;16.27;3.17;;;;;;;;;;5011040;28;20760;-72
2021/11/01 02:27:09;;;;;;;16.63;2.67;;;;;;;;;;5020107;28;20288;-72
2021/11/01 02:29:34;;;;;;;21.15;3.50;;;;;;;;;;5018470;28;20214;-72
2021/11/01 02:32:00;;;;;;;14.90;3.00;;;;;;;;;;5011402;28;20209;-73
2021/11/01 02:34:25;;;;;;;20.85;3.80;;;;;;;;;;5019862;28;20198;-73
2021/11/01 02:36:51;;;;;;;16.00;3.38;;;;;;;;;;5012215;28;20271;-72
2021/11/01 02:39:17;;;;;;;20.95;3.00;;;;;;;;;;5021069;28;20669;-72
2021/11/01 02:41:43;;;;;;;14.70;2.80;;;;;;;;;;5023149;28;20328;-74
2021/11/01 02:44:09;;;;;;;18.17;2.70;;;;;;;;;;5019282;28;20193;-73
2021/11/01 02:46:36;;;;;;;17.05;3.20;;;;;;;;;;5009353;28;20209;-73
2021/11/01 02:49:02;;;;;;;20.13;3.13;;;;;;;;;;5021660;28;20658;-73
2021/11/01 02:51:29;;;;;;;17.90;3.45;;;;;;;;;;5007628;28;20240;-73
2021/11/01 02:53:57;;;;;;;18.80;3.00;;;;;;;;;;5019792;28;20182;-73
2021/11/01 02:56:24;;;;;;;20.15;2.85;;;;;;;;;;5009418;28;20243;-74
2021/11/01 02:58:51;;;;;;;17.90;2.92;;;;;;;;;;5020769;28;20660;-73
2021/11/01 03:01:18;;;;;;;18.58;3.33;;;;;;;;;;5017405;28;20187;-73
2021/11/01 03:03:45;;;;;;;21.83;3.15;;;;;;;;;;5008900;28;20194;-73
2021/11/01 03:06:18;;;;;;;16.02;2.50;;;;;;;;;;5019669;28;20595;-73
2021/11/01 03:08:44;;;;;;;19.40;3.30;;;;;;;;;;5009934;28;20265;-74
2021/11/01 03:11:11;;;;;;;27.23;3.07;;;;;;;;;;5018637;28;20652;-74
2021/11/01 03:13:37;;;;;;;15.87;2.90;;;;;;;;;;5011343;28;20735;-73
2021/11/01 03:16:05;;;;;;;18.60;2.53;;;;;;;;;;5017240;28;20190;-73
2021/11/01 03:18:45;;;;;;;16.73;2.40;;;;;;;;;;5021820;28;20260;-73
2021/11/01 03:21:15;;;;;;;14.83;2.90;;;;;;;;;;5018707;28;20511;-73
2021/11/01 03:23:47;;;;;;;13.07;2.37;;;;;;;;;;5019571;28;20183;-73
2021/11/01 03:26:17;;;;;;;18.63;2.93;;;;;;;;;;5017784;28;20186;-73
2021/11/01 03:28:47;;;;;;;24.70;4.27;;;;;;;;;;5009019;28;20634;-73
2021/11/01 03:31:13;;;;;;;10.67;2.50;;;;;;;;;;5015817;28;20562;-73
2021/11/01 03:33:39;;;;;;;13.47;2.50;;;;;;;;;;5009191;28;20194;-73
2021/11/01 03:36:06;;;;;;;17.20;2.77;;;;;;;;;;5015484;28;20665;-73
2021/11/01 03:38:33;;;;;;;17.77;2.03;;;;;;;;;;5008161;28;20190;-73
2021/11/01 03:41:00;;;;;;;14.43;2.40;;;;;;;;;;5019054;28;20187;-73
2021/11/01 03:43:29;;;;;;;10.50;2.17;;;;;;;;;;5009716;28;20200;-73
2021/11/01 03:45:58;;;;;;;17.47;2.67;;;;;;;;;;5009604;28;20190;-74
2021/11/01 03:48:24;;;;;;;12.20;2.00;;;;;;;;;;5013552;28;20186;-73
2021/11/01 03:51:09;;;;;;;13.43;2.30;;;;;;;;;;5005721;28;20522;-72
2021/11/01 03:53:35;;;;;;;14.13;2.87;;;;;;;;;;5015061;28;20198;-72
2021/11/01 03:56:01;;;;;;;15.43;2.47;;;;;;;;;;5008697;28;20719;-72
2021/11/01 03:58:26;;;;;;;19.33;2.40;;;;;;;;;;5014538;28;20186;-73
2021/11/01 04:00:52;;;;;;;12.60;2.33;;;;;;;;;;5003956;28;20213;-72
2021/11/01 04:03:22;;;;;;;19.47;2.50;;;;;;;;;;5015860;28;20177;-72
2021/11/01 04:05:49;;;;;;;12.57;2.43;;;;;;;;;;5004778;28;20186;-72
2021/11/01 04:08:14;;;;;;;10.53;2.30;;;;;;;;;;5011274;28;20681;-71
2021/11/01 04:10:40;;;;;;;15.83;2.40;;;;;;;;;;5007278;28;20234;-72
2021/11/01 04:13:05;;;;;;;14.77;2.50;;;;;;;;;;5017801;28;20189;-71
2021/11/01 04:15:37;;;;;;;11.23;2.00;;;;;;;;;;5008365;28;20201;-71
2021/11/01 04:18:04;;;;;;;11.47;2.87;;;;;;;;;;5014894;28;20180;-72
2021/11/01 04:20:36;;;;;;;18.53;3.00;;;;;;;;;;5015662;28;20252;-74
2021/11/01 04:23:05;;;;;;;25.13;2.70;;;;;;;;;;5016135;28;20170;-72
2021/11/01 04:25:32;;;;;;;13.03;2.47;;;;;;;;;;5015495;28;20216;-72
2021/11/01 04:27:59;;;;;;;12.27;2.97;;;;;;;;;;5007678;28;20189;-72
2021/11/01 04:30:28;;;;;;;19.50;3.13;;;;;;;;;;5010999;28;20209;-72
2021/11/01 04:32:57;;;;;;;7.00;2.03;;;;;;;;;;5006423;28;20186;-74
2021/11/01 04:35:25;;;;;;;13.80;2.67;;;;;;;;;;5013214;28;20185;-72
2021/11/01 04:38:00;;;;;;;14.70;3.27;;;;;;;;;;5009424;28;20638;-71
2021/11/01 04:53:33;;;;;;;14.20;2.97;;;;;;;;;;5012498;28;20310;-73
2021/11/01 04:55:58;;;;;;;8.93;2.87;;;;;;;;;;5019348;28;20289;-73
2021/11/01 04:58:24;;;;;;;17.43;3.10;;;;;;;;;;5011304;28;20277;-73
2021/11/01 05:00:51;;;;;;;12.77;3.30;;;;;;;;;;5019524;28;20188;-73
2021/11/01 05:03:32;;;;;;;21.37;3.27;;;;;;;;;;5007913;28;20232;-74
2021/11/01 05:05:58;;;;;;;20.73;2.90;;;;;;;;;;5018254;28;20178;-73
2021/11/01 05:08:28;;;;;;;12.43;2.80;;;;;;;;;;5002648;28;20266;-73
2021/11/01 05:10:58;;;;;;;17.13;2.77;;;;;;;;;;5017719;28;20249;-77
2021/11/01 05:13:28;;;;;;;13.97;2.57;;;;;;;;;;5008284;28;20673;-73
2021/11/01 05:16:18;;;;;;;11.37;2.90;;;;;;;;;;5020546;28;20236;-73
2021/11/01 05:19:01;;;;;;;17.17;3.07;;;;;;;;;;5009948;28;20288;-73
2021/11/01 05:23:56;;;;;;;15.07;3.57;;;;;;;;;;5013283;28;22895;-73
2021/11/01 05:26:32;;;;;;;9.03;2.63;;;;;;;;;;5019494;28;20213;-73
2021/11/01 05:29:03;;;;;;;14.20;2.80;;;;;;;;;;5019524;28;20189;-74
2021/11/01 05:31:30;;;;;;;14.27;2.60;;;;;;;;;;5010319;28;20217;-73
2021/11/01 05:34:09;;;;;;;9.83;2.57;;;;;;;;;;5018761;28;20283;-72
2021/11/01 05:36:35;;;;;;;20.27;4.27;;;;;;;;;;5007231;28;20194;-73
2021/11/01 05:39:01;;;;;;;14.63;2.93;;;;;;;;;;5019715;28;20182;-73
2021/11/01 05:41:26;;;;;;;12.90;2.60;;;;;;;;;;5012544;28;20216;-74
2021/11/01 05:43:52;;;;;;;14.07;2.60;;;;;;;;;;5021987;28;20184;-73
2021/11/01 05:46:18;;;;;;;12.10;2.37;;;;;;;;;;5012742;28;20606;-72
2021/11/01 05:48:49;;;;;;;10.33;2.77;;;;;;;;;;5017439;28;20538;-72
2021/11/01 05:51:16;;;;;;;19.33;3.10;;;;;;;;;;5008279;28;20297;-72
2021/11/01 05:53:44;;;;;;;19.37;2.70;;;;;;;;;;5016923;28;20220;-72
2021/11/01 05:56:28;;;;;;;15.00;2.40;;;;;;;;;;5003698;28;20624;-72
2021/11/01 05:59:20;;;;;;;20.23;2.73;;;;;;;;;;5018068;28;20198;-72
2021/11/01 06:09:57;;;;;;;16.23;3.43;;;;;;;;;;5015135;28;20281;-73
2021/11/01 06:15:08;;;;;;;8.70;2.10;;;;;;;;;;5013641;28;20207;-73
2021/11/01 06:17:34;;;;;;;9.43;2.80;;;;;;;;;;5001563;28;20217;-74
2021/11/01 06:19:59;;;;;;;12.93;2.53;;;;;;;;;;5014877;28;20237;-74
2021/11/01 06:22:25;;;;;;;11.38;2.55;;;;;;;;;;5009031;28;20190;-73
2021/11/01 06:24:52;;;;;;;13.20;2.50;;;;;;;;;;5015070;28;20194;-74
2021/11/01 06:27:19;;;;;;;12.43;3.08;;;;;;;;;;5005499;28;20633;-73
2021/11/01 06:40:35;;;;;;;18.40;3.20;;;;;;;;;;5016468;28;20739;-72
2021/11/01 06:43:07;;;;;;;14.87;2.40;;;;;;;;;;5005063;28;20261;-73
2021/11/01 06:51:09;;;;;;;13.40;1.90;;;;;;;;;;5017436;28;20728;-73
2021/11/01 06:56:28;;;;;;;14.27;2.40;;;;;;;;;;5015669;28;20495;-73
2021/11/01 07:15:23;;;;;;;12.83;1.87;;;;;;;;;;5006458;28;20208;-75
2021/11/01 07:30:06;;;;;;;17.47;2.27;;;;;;;;;;5001246;28;20565;-73
2021/11/01 08:21:15;;;;;;;12.85;2.22;;;;;;;;;;5016989;28;20194;-74
2021/11/01 08:24:17;;;;;;;11.80;2.25;;;;;;;;;;5005846;28;20190;-73
2021/11/01 08:29:24;;;;;;;13.85;2.10;;;;;;;;;;5007922;28;20220;-74
2021/11/01 08:35:11;;;;;;;15.25;2.25;;;;;;;;;;5009282;28;20255;-73
2021/11/01 08:38:02;;;;;;;11.45;2.08;;;;;;;;;;5014188;28;20192;-75
2021/11/01 08:48:28;;;;;;;11.63;1.58;;;;;;;;;;5018046;28;20268;-73
2021/11/01 09:01:22;;;;;;;12.07;1.77;;;;;;;;;;5010795;28;20371;-74
2021/11/01 09:02:15;;;;;;;8.35;1.63;;;;;;;;;;5004077;28;20202;-73
2021/11/01 09:07:19;;;;;;;13.23;1.98;;;;;;;;;;5007709;28;20198;-73
2021/11/01 09:20:28;;;;;;;9.43;1.75;;;;;;;;;;5017330;28;20205;-72
2021/11/01 09:26:12;;;;;;;12.43;2.35;;;;;;;;;;5012131;28;20194;-74
2021/11/01 09:28:47;;;;;;;10.77;1.90;;;;;;;;;;5009817;28;20759;-73
2021/11/01 09:36:48;;;;;;;8.93;1.90;;;;;;;;;;5020424;28;21115;-73
2021/11/01 09:41:59;;;;;;;12.15;1.60;;;;;;;;;;5021097;28;20198;-74
2021/11/01 09:44:26;;;;;;;10.93;2.08;;;;;;;;;;5012069;28;20240;-73
2021/11/01 09:47:02;;;;;;;8.60;1.60;;;;;;;;;;5020554;28;20190;-73
2021/11/01 09:49:28;;;;;;;17.05;2.00;;;;;;;;;;5011879;28;20197;-72
2021/11/01 09:51:57;;;;;;;8.73;1.55;;;;;;;;;;5019283;28;20566;-73
2021/11/01 09:54:26;;;;;;;10.48;1.65;;;;;;;;;;5010556;28;20216;-73
2021/11/01 09:56:58;;;;;;;10.43;1.70;;;;;;;;;;5019121;28;20267;-73
2021/11/01 09:59:31;;;;;;;13.48;1.85;;;;;;;;;;5024235;28;20194;-72
2021/11/01 10:01:57;;;;;;;7.57;1.20;;;;;;;;;;5019531;28;20348;-73
2021/11/01 10:04:32;;;;;;;9.57;2.00;;;;;;;;;;5012926;28;20724;-73
2021/11/01 10:07:19;;;;;;;9.98;1.63;;;;;;;;;;5017664;28;20229;-72
2021/11/01 10:09:49;;;;;;;10.05;1.52;;;;;;;;;;5011722;28;20190;-71
2021/11/01 10:12:34;;;;;;;6.47;1.40;;;;;;;;;;5020283;28;20209;-72
2021/11/01 10:18:00;;;;;;;6.68;1.60;;;;;;;;;;5020264;28;20186;-72
2021/11/01 10:20:27;;;;;;;13.23;1.83;;;;;;;;;;5010231;28;20523;-75
2021/11/01 10:22:53;;;;;;;5.55;1.20;;;;;;;;;;5014357;28;20171;-71
2021/11/01 10:25:20;;;;;;;11.00;1.67;;;;;;;;;;5012363;28;20239;-72
2021/11/01 10:27:58;;;;;;;6.82;1.52;;;;;;;;;;5019590;28;20182;-73
2021/11/01 10:30:23;;;;;;;8.15;1.80;;;;;;;;;;5009129;28;20237;-72
2021/11/01 10:32:51;;;;;;;9.68;1.80;;;;;;;;;;5019481;28;20218;-73
2021/11/01 10:35:20;;;;;;;8.10;1.30;;;;;;;;;;5010714;28;20654;-73
2021/11/01 10:38:28;;;;;;;6.60;1.27;;;;;;;;;;5020563;28;20265;-73
2021/11/01 10:41:09;;;;;;;8.10;1.83;;;;;;;;;;4978334;28;20233;-74
2021/11/01 10:46:53;;;;;;;7.43;1.60;;;;;;;;;;4999716;28;20209;-72
2021/11/01 11:11:02;;;;;;;9.55;1.30;;;;;;;;;;5019043;28;20292;-72
2021/11/01 11:13:32;;;;;;;11.13;2.00;;;;;;;;;;5010765;28;20676;-72
2021/11/01 11:15:59;;;;;;;5.38;0.98;;;;;;;;;;5021223;28;20273;-74
2021/11/01 11:18:48;;;;;;;6.55;1.27;;;;;;;;;;5009970;28;20186;-73
2021/11/01 11:32:21;;;;;;;5.22;1.23;;;;;;;;;;5019291;28;20194;-73
2021/11/01 11:38:24;;;;;;;6.25;1.38;;;;;;;;;;5000579;28;20300;-72
2021/11/01 11:43:37;;;;;;;8.25;1.63;;;;;;;;;;5012796;28;20221;-72
2021/11/01 11:49:26;;;;;;;5.57;0.95;;;;;;;;;;5005213;28;21487;-73
2021/11/01 11:52:04;;;;;;;6.65;0.85;;;;;;;;;;4996399;28;20202;-73
2021/11/01 11:54:38;;;;;;;4.63;1.10;;;;;;;;;;4998928;28;20201;-74
2021/11/01 11:57:25;;;;;;;5.50;1.20;;;;;;;;;;5020233;28;20216;-73
2021/11/01 11:59:54;;;;;;;6.07;1.27;;;;;;;;;;5019046;28;20286;-73
2021/11/01 12:02:42;;;;;;;8.88;1.05;;;;;;;;;;5017111;28;20212;-72
2021/11/01 12:05:14;;;;;;;4.93;0.90;;;;;;;;;;5009822;28;20641;-73
2021/11/01 12:07:49;;;;;;;4.55;0.88;;;;;;;;;;5018635;28;20186;-72
2021/11/01 12:10:38;;;;;;;7.38;1.05;;;;;;;;;;5009961;28;20218;-72
2021/11/01 12:13:39;;;;;;;7.40;1.30;;;;;;;;;;5015323;28;20197;-72
2021/11/01 12:18:55;;;;;;;3.60;1.00;;;;;;;;;;5019121;28;20616;-73
2021/11/01 12:21:24;;;;;;;7.18;1.20;;;;;;;;;;5002838;28;20232;-73
2021/11/01 12:23:50;;;;;;;7.28;1.02;;;;;;;;;;5016451;28;20194;-73
2021/11/01 12:26:18;;;;;;;6.03;1.08;;;;;;;;;;5008940;28;20689;-73
2021/11/01 12:28:49;;;;;;;9.63;1.27;;;;;;;;;;5017257;28;20288;-73
2021/11/01 12:31:15;;;;;;;5.35;1.00;;;;;;;;;;5013585;28;20242;-73
2021/11/01 12:33:50;;;;;;;5.78;0.95;;;;;;;;;;5015655;28;20280;-72
2021/11/01 12:36:21;;;;;;;5.63;0.88;;;;;;;;;;5017788;28;20929;-72
2021/11/01 12:38:55;;;;;;;8.90;1.13;;;;;;;;;;5010394;28;20561;-73
2021/11/01 12:58:02;;;;;;;8.38;1.17;;;;;;;;;;5005887;28;20727;-72
2021/11/01 13:00:38;;;;;;;5.47;1.08;;;;;;;;;;5013943;28;20277;-73
2021/11/01 13:03:16;;;;;;;6.65;1.20;;;;;;;;;;5009401;28;20173;-73
2021/11/01 13:05:46;;;;;;;6.35;0.80;;;;;;;;;;5018007;28;20197;-73
2021/11/01 13:08:14;;;;;;;5.13;0.70;;;;;;;;;;5018722;28;20265;-72
2021/11/01 13:18:41;;;;;;;4.22;0.77;;;;;;;;;;5019975;28;20197;-73
2021/11/01 13:21:23;;;;;;;7.63;1.10;;;;;;;;;;5008349;28;20190;-73
2021/11/01 13:23:54;;;;;;;6.93;1.50;;;;;;;;;;5015445;28;20498;-73
2021/11/01 13:26:36;;;;;;;5.13;0.90;;;;;;;;;;5009372;28;20188;-72
2021/11/01 13:29:21;;;;;;;4.10;1.15;;;;;;;;;;5022382;28;20263;-72
2021/11/01 13:34:57;;;;;;;5.43;0.80;;;;;;;;;;5016913;28;20342;-73
2021/11/01 13:37:35;;;;;;;8.50;1.02;;;;;;;;;;5020599;28;20186;-72
2021/11/01 13:40:19;;;;;;;4.82;0.90;;;;;;;;;;5014372;28;20190;-73
2021/11/01 13:42:58;;;;;;;6.18;0.95;;;;;;;;;;5018724;28;20197;-73
2021/11/01 13:45:25;;;;;;;4.05;0.80;;;;;;;;;;5006922;28;20756;-73
2021/11/01 13:47:52;;;;;;;5.15;0.90;;;;;;;;;;5015701;28;20191;-73
2021/11/01 13:50:22;;;;;;;4.38;1.15;;;;;;;;;;5017208;28;20210;-74
2021/11/01 13:53:10;;;;;;;5.45;0.82;;;;;;;;;;5004469;28;20190;-73
2021/11/01 13:55:47;;;;;;;6.03;0.80;;;;;;;;;;5016391;28;21297;-73
2021/11/01 14:12:08;;;;;;;3.35;0.70;;;;;;;;;;5010491;28;20288;-74
2021/11/01 14:14:43;;;;;;;7.32;1.10;;;;;;;;;;5016237;28;20657;-73
2021/11/01 15:06:45;;;;;;;3.78;0.90;;;;;;;;;;5009683;28;20209;-72
2021/11/01 15:17:00;;;;;;;8.85;1.38;;;;;;;;;;5006990;28;20290;-73
2021/11/01 15:19:51;;;;;;;7.10;1.63;;;;;;;;;;5015246;28;20193;-73
2021/11/01 15:22:33;;;;;;;5.45;1.10;;;;;;;;;;5010382;28;20190;-72
2021/11/01 15:28:05;;;;;;;5.75;1.42;;;;;;;;;;5010629;28;20200;-73
2021/11/01 15:36:01;;;;;;;9.98;1.48;;;;;;;;;;5022025;28;20190;-73
2021/11/01 15:39:16;;;;;;;4.53;1.27;;;;;;;;;;5016750;28;20622;-72
2021/11/01 16:17:42;;;;;;;7.55;1.40;;;;;;;;;;4997146;28;20665;-73
2021/11/01 16:19:40;;;;;;;9.65;1.77;;;;;;;;;;4990872;28;20197;-73
2021/11/01 16:22:10;;;;;;;11.20;1.48;;;;;;;;;;5007454;28;20650;-73
2021/11/01 16:24:36;;;;;;;6.93;0.80;;;;;;;;;;4999187;28;20342;-73
2021/11/01 16:27:03;;;;;;;6.32;1.20;;;;;;;;;;5002580;28;20182;-73
2021/11/01 16:29:41;;;;;;;5.28;1.20;;;;;;;;;;4998146;28;20248;-73
2021/11/01 16:32:14;;;;;;;7.85;1.30;;;;;;;;;;5006559;28;20202;-73
2021/11/01 16:34:40;;;;;;;4.85;1.13;;;;;;;;;;4996934;28;20208;-73
2021/11/01 16:39:47;;;;;;;15.80;1.50;;;;;;;;;;4318571;28;10023015;-73
2021/11/01 16:42:15;;;;;;;4.88;1.55;;;;;;;;;;5005062;28;20194;-73
2021/11/01 16:44:42;;;;;;;8.77;1.33;;;;;;;;;;5003239;28;20197;-73
2021/11/01 16:47:08;;;;;;;8.57;1.42;;;;;;;;;;5010542;28;20192;-73
2021/11/01 16:49:33;;;;;;;5.03;1.30;;;;;;;;;;5011269;28;20595;-73
2021/11/01 16:52:05;;;;;;;7.78;1.20;;;;;;;;;;5003769;28;20262;-72
2021/11/01 16:54:35;;;;;;;8.13;1.38;;;;;;;;;;5004581;28;20194;-72
2021/11/01 16:57:10;;;;;;;6.65;1.17;;;;;;;;;;4999898;28;20212;-72
2021/11/01 16:59:46;;;;;;;8.25;1.23;;;;;;;;;;5009986;28;20263;-72
2021/11/01 17:04:58;;;;;;;11.93;1.35;;;;;;;;;;5013169;28;20201;-72
2021/11/01 17:35:07;;;;;;;6.95;1.48;;;;;;;;;;5013660;28;20275;-72
2021/11/01 17:37:44;;;;;;;3.78;1.40;;;;;;;;;;5008146;28;20572;-72
2021/11/01 18:41:23;;;;;;;12.05;1.15;;;;;;;;;;5005788;28;20305;-73
2021/11/01 18:51:52;;;;;;;8.52;1.52;;;;;;;;;;5010251;28;20233;-73
2021/11/01 18:54:22;;;;;;;4.07;1.50;;;;;;;;;;5015725;28;20558;-72
2021/11/01 18:56:49;;;;;;;4.60;1.40;;;;;;;;;;5006906;28;20217;-74
2021/11/01 18:59:15;;;;;;;6.10;1.38;;;;;;;;;;5020873;28;20704;-73
2021/11/01 19:01:50;;;;;;;7.85;1.63;;;;;;;;;;5021653;28;20206;-72
2021/11/01 19:04:21;;;;;;;9.93;1.58;;;;;;;;;;4328598;28;10000721;-73
2021/11/01 19:06:56;;;;;;;6.63;2.15;;;;;;;;;;5018101;28;20244;-72
2021/11/01 20:15:21;;;;;;;3.45;0.85;;;;;;;;;;5011983;28;20238;-72
2021/11/01 21:27:42;;;;;;;6.60;3.00;;;;;;;;;;5035325;28;20248;-71
2021/11/01 21:30:10;;;;;;;6.80;2.57;;;;;;;;;;5010702;28;20217;-71
2021/11/01 21:32:36;;;;;;;8.60;2.90;;;;;;;;;;5020160;28;20190;-72
2021/11/01 21:35:08;;;;;;;7.60;3.00;;;;;;;;;;5009327;28;20252;-72
2021/11/01 21:37:33;;;;;;;4.10;2.50;;;;;;;;;;5011235;28;20280;-72
2021/11/01 21:40:00;;;;;;;8.10;2.70;;;;;;;;;;5016239;28;20277;-72
2021/11/01 21:42:26;;;;;;;4.53;2.30;;;;;;;;;;5009664;28;20194;-72
2021/11/01 21:44:55;;;;;;;4.33;2.40;;;;;;;;;;5015881;28;20178;-72
2021/11/01 21:47:20;;;;;;;8.77;2.40;;;;;;;;;;5010425;28;20662;-73
2021/11/01 21:49:47;;;;;;;4.53;1.90;;;;;;;;;;5015443;28;20275;-72
2021/11/01 21:52:14;;;;;;;3.70;1.73;;;;;;;;;;5004088;28;20206;-71
2021/11/01 21:54:58;;;;;;;4.43;1.63;;;;;;;;;;5020614;28;20197;-71
2021/11/01 22:16:38;;;;;;;2.57;1.53;;;;;;;;;;5016796;28;21759;-71
2021/11/01 22:19:13;;;;;;;3.93;2.03;;;;;;;;;;5007881;28;20224;-71
2021/11/01 22:21:54;;;;;;;5.60;2.50;;;;;;;;;;5018103;28;20671;-72
2021/11/01 22:24:31;;;;;;;6.23;2.80;;;;;;;;;;5010297;28;20190;-71
2021/11/01 22:31:58;;;;;;;5.70;2.77;;;;;;;;;;5017698;28;20197;-71
2021/11/01 22:32:55;;;;;;;5.97;2.57;;;;;;;;;;5015614;28;20335;-71
2021/11/01 22:40:51;;;;;;;7.83;2.00;;;;;;;;;;5010543;28;20284;-72
2021/11/01 22:43:41;;;;;;;4.53;1.80;;;;;;;;;;5018040;28;20657;-71
2021/11/01 22:57:11;;;;;;;5.17;2.00;;;;;;;;;;5016441;28;20345;-71
2021/11/01 22:59:37;;;;;;;10.97;2.37;;;;;;;;;;5015667;28;20576;-72
2021/11/01 23:02:03;;;;;;;6.07;2.13;;;;;;;;;;5009800;28;20191;-72
2021/11/01 23:31:38;;;;;;;4.10;2.23;;;;;;;;;;5016677;28;20221;-72
2021/11/01 23:34:09;;;;;;;6.00;2.20;;;;;;;;;;5017087;28;20255;-72
2021/11/01 23:36:36;;;;;;;5.93;2.90;;;;;;;;;;5014829;28;20222;-72
2021/11/01 23:39:03;;;;;;;6.60;2.33;;;;;;;;;;5009742;28;20190;-72
2021/11/01 23:41:28;;;;;;;6.10;2.50;;;;;;;;;;5018873;28;20194;-72
2021/11/01 23:43:53;;;;;;;4.80;2.60;;;;;;;;;;5010789;28;20673;-71
2021/11/01 23:46:19;;;;;;;6.27;2.70;;;;;;;;;;5017797;28;20244;-72
2021/11/01 23:48:44;;;;;;;6.50;2.90;;;;;;;;;;5007681;28;20223;-72
2021/11/01 23:51:11;;;;;;;9.80;3.03;;;;;;;;;;5014015;28;20214;-72
2021/11/01 23:53:47;;;;;;;9.37;3.17;;;;;;;;;;5007987;28;20675;-72
2021/11/01 23:56:15;;;;;;;6.80;3.00;;;;;;;;;;5014613;28;20214;-72
2021/11/01 23:58:42;;;;;;;7.23;3.00;;;;;;;;;;5006430;28;20293;-72
